sensor_id;sensor_type;location;lat;lon;timestamp;temperature;humidity
23507;DHT22;11930;53.076;18.250;2024-02-04T00:00:25;7.20;99.90
23507;DHT22;11930;53.076;18.250;2024-02-04T00:03:11;7.10;99.90
23507;DHT22;11930;53.076;18.250;2024-02-04T00:05:37;7.10;99.90
23507;DHT22;11930;53.076;18.250;2024-02-04T00:08:04;7.10;99.90
23507;DHT22;11930;53.076;18.250;2024-02-04T00:10:30;7.20;99.90
23507;DHT22;11930;53.076;18.250;2024-02-04T00:12:56;7.20;99.90
23507;DHT22;11930;53.076;18.250;2024-02-04T00:15:22;7.10;99.90
23507;DHT22;11930;53.076;18.250;2024-02-04T00:17:49;7.20;99.90
23507;DHT22;11930;53.076;18.250;2024-02-04T00:20:15;7.20;99.90
23507;DHT22;11930;53.076;18.250;2024-02-04T00:22:41;7.10;99.90
23507;DHT22;11930;53.076;18.250;2024-02-04T00:25:07;7.20;99.90
23507;DHT22;11930;53.076;18.250;2024-02-04T00:27:37;7.20;99.90
23507;DHT22;11930;53.076;18.250;2024-02-04T00:30:04;7.20;99.90
23507;DHT22;11930;53.076;18.250;2024-02-04T00:32:31;7.20;99.90
23507;DHT22;11930;53.076;18.250;2024-02-04T00:34:57;7.10;99.90
23507;DHT22;11930;53.076;18.250;2024-02-04T00:37:23;7.00;99.90
23507;DHT22;11930;53.076;18.250;2024-02-04T00:39:49;7.00;99.90
23507;DHT22;11930;53.076;18.250;2024-02-04T00:42:16;6.90;99.90
23507;DHT22;11930;53.076;18.250;2024-02-04T00:44:42;6.90;99.90
23507;DHT22;11930;53.076;18.250;2024-02-04T00:47:08;6.80;99.90
23507;DHT22;11930;53.076;18.250;2024-02-04T00:49:34;6.80;99.90
23507;DHT22;11930;53.076;18.250;2024-02-04T00:52:00;6.70;99.90
23507;DHT22;11930;53.076;18.250;2024-02-04T00:54:27;6.70;99.90
23507;DHT22;11930;53.076;18.250;2024-02-04T00:56:53;6.70;99.90
23507;DHT22;11930;53.076;18.250;2024-02-04T00:59:19;6.70;99.90
23507;DHT22;11930;53.076;18.250;2024-02-04T01:01:46;6.70;99.90
23507;DHT22;11930;53.076;18.250;2024-02-04T01:04:12;6.70;99.90
23507;DHT22;11930;53.076;18.250;2024-02-04T01:06:38;6.70;99.90
23507;DHT22;11930;53.076;18.250;2024-02-04T01:09:05;6.80;99.90
23507;DHT22;11930;53.076;18.250;2024-02-04T01:11:31;6.80;99.90
23507;DHT22;11930;53.076;18.250;2024-02-04T01:13:57;6.80;99.90
23507;DHT22;11930;53.076;18.250;2024-02-04T01:16:23;6.80;99.90
23507;DHT22;11930;53.076;18.250;2024-02-04T01:18:50;6.80;99.90
23507;DHT22;11930;53.076;18.250;2024-02-04T01:21:16;6.70;99.90
23507;DHT22;11930;53.076;18.250;2024-02-04T01:23:42;6.70;99.90
23507;DHT22;11930;53.076;18.250;2024-02-04T01:26:08;6.70;99.90
23507;DHT22;11930;53.076;18.250;2024-02-04T01:28:34;6.70;99.90
23507;DHT22;11930;53.076;18.250;2024-02-04T01:31:01;6.70;99.90
23507;DHT22;11930;53.076;18.250;2024-02-04T01:33:27;6.70;99.90
23507;DHT22;11930;53.076;18.250;2024-02-04T01:35:54;6.70;99.90
23507;DHT22;11930;53.076;18.250;2024-02-04T01:38:21;6.70;99.90
23507;DHT22;11930;53.076;18.250;2024-02-04T01:40:47;6.60;99.90
23507;DHT22;11930;53.076;18.250;2024-02-04T01:43:13;6.60;99.90
23507;DHT22;11930;53.076;18.250;2024-02-04T01:45:40;6.60;99.90
23507;DHT22;11930;53.076;18.250;2024-02-04T01:48:06;6.60;99.90
23507;DHT22;11930;53.076;18.250;2024-02-04T01:50:32;6.60;99.90
23507;DHT22;11930;53.076;18.250;2024-02-04T01:52:59;6.60;99.90
23507;DHT22;11930;53.076;18.250;2024-02-04T01:55:25;6.60;99.90
23507;DHT22;11930;53.076;18.250;2024-02-04T01:57:51;6.50;99.90
23507;DHT22;11930;53.076;18.250;2024-02-04T02:00:18;6.50;99.90
23507;DHT22;11930;53.076;18.250;2024-02-04T02:02:46;6.40;99.90
23507;DHT22;11930;53.076;18.250;2024-02-04T02:05:12;6.40;99.90
23507;DHT22;11930;53.076;18.250;2024-02-04T02:07:40;6.30;99.90
23507;DHT22;11930;53.076;18.250;2024-02-04T02:10:07;6.30;99.90
23507;DHT22;11930;53.076;18.250;2024-02-04T02:12:47;6.30;99.90
23507;DHT22;11930;53.076;18.250;2024-02-04T02:15:22;6.30;99.90
23507;DHT22;11930;53.076;18.250;2024-02-04T02:18:04;6.30;99.90
23507;DHT22;11930;53.076;18.250;2024-02-04T02:26:20;6.20;99.90
23507;DHT22;11930;53.076;18.250;2024-02-04T02:28:47;6.20;99.90
23507;DHT22;11930;53.076;18.250;2024-02-04T02:31:13;6.20;99.90
23507;DHT22;11930;53.076;18.250;2024-02-04T02:33:39;6.20;99.90
23507;DHT22;11930;53.076;18.250;2024-02-04T02:36:10;6.20;99.90
23507;DHT22;11930;53.076;18.250;2024-02-04T02:39:18;6.20;99.90
23507;DHT22;11930;53.076;18.250;2024-02-04T02:41:49;6.10;99.90
23507;DHT22;11930;53.076;18.250;2024-02-04T02:44:17;6.10;99.90
23507;DHT22;11930;53.076;18.250;2024-02-04T02:46:45;6.10;99.90
23507;DHT22;11930;53.076;18.250;2024-02-04T02:49:11;6.10;99.90
23507;DHT22;11930;53.076;18.250;2024-02-04T02:51:38;6.00;99.90
23507;DHT22;11930;53.076;18.250;2024-02-04T02:54:04;6.00;99.90
23507;DHT22;11930;53.076;18.250;2024-02-04T02:56:30;6.00;99.90
23507;DHT22;11930;53.076;18.250;2024-02-04T02:58:56;5.90;99.90
23507;DHT22;11930;53.076;18.250;2024-02-04T03:01:22;5.80;99.90
23507;DHT22;11930;53.076;18.250;2024-02-04T03:03:50;5.80;99.90
23507;DHT22;11930;53.076;18.250;2024-02-04T03:06:16;5.70;99.90
23507;DHT22;11930;53.076;18.250;2024-02-04T03:08:42;5.70;99.90
23507;DHT22;11930;53.076;18.250;2024-02-04T03:11:08;5.60;99.90
23507;DHT22;11930;53.076;18.250;2024-02-04T03:13:38;5.60;99.90
23507;DHT22;11930;53.076;18.250;2024-02-04T03:16:10;5.60;99.90
23507;DHT22;11930;53.076;18.250;2024-02-04T03:18:41;5.60;99.90
23507;DHT22;11930;53.076;18.250;2024-02-04T03:21:14;5.50;99.90
23507;DHT22;11930;53.076;18.250;2024-02-04T03:23:42;5.60;99.90
23507;DHT22;11930;53.076;18.250;2024-02-04T03:26:09;5.60;99.90
23507;DHT22;11930;53.076;18.250;2024-02-04T03:28:37;5.70;99.90
23507;DHT22;11930;53.076;18.250;2024-02-04T03:31:04;5.70;99.90
23507;DHT22;11930;53.076;18.250;2024-02-04T03:33:30;5.80;99.90
23507;DHT22;11930;53.076;18.250;2024-02-04T03:35:56;5.80;99.90
23507;DHT22;11930;53.076;18.250;2024-02-04T03:38:23;5.90;99.90
23507;DHT22;11930;53.076;18.250;2024-02-04T03:40:51;5.90;99.90
23507;DHT22;11930;53.076;18.250;2024-02-04T03:43:17;5.90;99.90
23507;DHT22;11930;53.076;18.250;2024-02-04T03:45:43;6.00;99.90
23507;DHT22;11930;53.076;18.250;2024-02-04T03:48:09;6.00;99.90
23507;DHT22;11930;53.076;18.250;2024-02-04T03:50:36;6.00;99.90
23507;DHT22;11930;53.076;18.250;2024-02-04T03:53:02;6.00;99.90
23507;DHT22;11930;53.076;18.250;2024-02-04T03:55:29;6.10;99.90
23507;DHT22;11930;53.076;18.250;2024-02-04T03:57:55;6.10;99.90
23507;DHT22;11930;53.076;18.250;2024-02-04T04:00:23;6.10;99.90
23507;DHT22;11930;53.076;18.250;2024-02-04T04:02:49;6.10;99.90
23507;DHT22;11930;53.076;18.250;2024-02-04T04:05:15;6.10;99.90
23507;DHT22;11930;53.076;18.250;2024-02-04T04:07:41;6.10;99.90
23507;DHT22;11930;53.076;18.250;2024-02-04T04:10:07;6.10;99.90
23507;DHT22;11930;53.076;18.250;2024-02-04T04:12:34;6.10;99.90
23507;DHT22;11930;53.076;18.250;2024-02-04T04:15:00;6.10;99.90
23507;DHT22;11930;53.076;18.250;2024-02-04T04:17:26;6.10;99.90
23507;DHT22;11930;53.076;18.250;2024-02-04T04:19:52;6.00;99.90
23507;DHT22;11930;53.076;18.250;2024-02-04T04:22:19;6.00;99.90
23507;DHT22;11930;53.076;18.250;2024-02-04T04:24:44;6.00;99.90
23507;DHT22;11930;53.076;18.250;2024-02-04T04:27:11;5.90;99.90
23507;DHT22;11930;53.076;18.250;2024-02-04T04:29:37;5.80;99.90
23507;DHT22;11930;53.076;18.250;2024-02-04T04:32:03;5.80;99.90
23507;DHT22;11930;53.076;18.250;2024-02-04T04:34:30;5.70;99.90
23507;DHT22;11930;53.076;18.250;2024-02-04T04:36:56;5.70;99.90
23507;DHT22;11930;53.076;18.250;2024-02-04T04:39:22;5.60;99.90
23507;DHT22;11930;53.076;18.250;2024-02-04T04:41:48;5.60;99.90
23507;DHT22;11930;53.076;18.250;2024-02-04T04:44:14;5.60;99.90
23507;DHT22;11930;53.076;18.250;2024-02-04T04:46:41;5.60;99.90
23507;DHT22;11930;53.076;18.250;2024-02-04T04:49:07;5.60;99.90
23507;DHT22;11930;53.076;18.250;2024-02-04T04:51:33;5.60;99.90
23507;DHT22;11930;53.076;18.250;2024-02-04T04:53:59;5.60;99.90
23507;DHT22;11930;53.076;18.250;2024-02-04T04:56:26;5.60;99.90
23507;DHT22;11930;53.076;18.250;2024-02-04T04:58:52;5.60;99.90
23507;DHT22;11930;53.076;18.250;2024-02-04T05:01:18;5.70;99.90
23507;DHT22;11930;53.076;18.250;2024-02-04T05:03:44;5.70;99.90
23507;DHT22;11930;53.076;18.250;2024-02-04T05:06:11;5.70;99.90
23507;DHT22;11930;53.076;18.250;2024-02-04T05:08:37;5.70;99.90
23507;DHT22;11930;53.076;18.250;2024-02-04T05:11:04;5.70;99.90
23507;DHT22;11930;53.076;18.250;2024-02-04T05:13:30;5.70;99.90
23507;DHT22;11930;53.076;18.250;2024-02-04T05:15:56;5.70;99.90
23507;DHT22;11930;53.076;18.250;2024-02-04T05:18:22;5.70;99.90
23507;DHT22;11930;53.076;18.250;2024-02-04T05:20:52;5.70;99.90
23507;DHT22;11930;53.076;18.250;2024-02-04T05:23:18;5.60;99.90
23507;DHT22;11930;53.076;18.250;2024-02-04T05:25:44;5.60;99.90
23507;DHT22;11930;53.076;18.250;2024-02-04T05:28:10;5.60;99.90
23507;DHT22;11930;53.076;18.250;2024-02-04T05:30:37;5.60;99.90
23507;DHT22;11930;53.076;18.250;2024-02-04T05:33:03;5.60;99.90
23507;DHT22;11930;53.076;18.250;2024-02-04T05:35:29;5.60;99.90
23507;DHT22;11930;53.076;18.250;2024-02-04T05:37:55;5.60;99.90
23507;DHT22;11930;53.076;18.250;2024-02-04T05:40:22;5.60;99.90
23507;DHT22;11930;53.076;18.250;2024-02-04T05:42:48;5.60;99.90
23507;DHT22;11930;53.076;18.250;2024-02-04T05:45:14;5.60;99.90
23507;DHT22;11930;53.076;18.250;2024-02-04T05:47:40;5.60;99.90
23507;DHT22;11930;53.076;18.250;2024-02-04T05:50:07;5.60;99.90
23507;DHT22;11930;53.076;18.250;2024-02-04T05:52:33;5.70;99.90
23507;DHT22;11930;53.076;18.250;2024-02-04T05:54:59;5.70;99.90
23507;DHT22;11930;53.076;18.250;2024-02-04T05:57:25;5.70;99.90
23507;DHT22;11930;53.076;18.250;2024-02-04T05:59:52;5.70;99.90
23507;DHT22;11930;53.076;18.250;2024-02-04T06:02:18;5.70;99.90
23507;DHT22;11930;53.076;18.250;2024-02-04T06:04:45;5.70;99.90
23507;DHT22;11930;53.076;18.250;2024-02-04T06:07:11;5.70;99.90
23507;DHT22;11930;53.076;18.250;2024-02-04T06:09:38;5.70;99.90
23507;DHT22;11930;53.076;18.250;2024-02-04T06:12:04;5.60;99.90
23507;DHT22;11930;53.076;18.250;2024-02-04T06:14:33;5.60;99.90
23507;DHT22;11930;53.076;18.250;2024-02-04T06:17:00;5.60;99.90
23507;DHT22;11930;53.076;18.250;2024-02-04T06:19:27;5.50;99.90
23507;DHT22;11930;53.076;18.250;2024-02-04T06:21:53;5.50;99.90
23507;DHT22;11930;53.076;18.250;2024-02-04T06:24:19;5.50;99.90
23507;DHT22;11930;53.076;18.250;2024-02-04T06:26:46;5.40;99.90
23507;DHT22;11930;53.076;18.250;2024-02-04T06:29:12;5.40;99.90
23507;DHT22;11930;53.076;18.250;2024-02-04T06:31:38;5.30;99.90
23507;DHT22;11930;53.076;18.250;2024-02-04T06:34:05;5.30;99.90
23507;DHT22;11930;53.076;18.250;2024-02-04T06:36:31;5.20;99.90
23507;DHT22;11930;53.076;18.250;2024-02-04T06:38:57;5.20;99.90
23507;DHT22;11930;53.076;18.250;2024-02-04T06:41:23;5.20;99.90
23507;DHT22;11930;53.076;18.250;2024-02-04T06:43:49;5.10;99.90
23507;DHT22;11930;53.076;18.250;2024-02-04T06:46:24;5.10;99.90
23507;DHT22;11930;53.076;18.250;2024-02-04T06:48:51;5.10;99.90
23507;DHT22;11930;53.076;18.250;2024-02-04T06:51:17;5.20;99.90
23507;DHT22;11930;53.076;18.250;2024-02-04T06:53:43;5.30;99.90
23507;DHT22;11930;53.076;18.250;2024-02-04T06:56:09;5.30;99.90
23507;DHT22;11930;53.076;18.250;2024-02-04T06:58:39;5.30;99.90
23507;DHT22;11930;53.076;18.250;2024-02-04T07:01:05;5.40;99.90
23507;DHT22;11930;53.076;18.250;2024-02-04T07:03:31;5.50;99.90
23507;DHT22;11930;53.076;18.250;2024-02-04T07:05:59;5.50;99.90
23507;DHT22;11930;53.076;18.250;2024-02-04T07:08:25;5.60;99.90
23507;DHT22;11930;53.076;18.250;2024-02-04T07:10:52;5.60;99.90
23507;DHT22;11930;53.076;18.250;2024-02-04T07:13:19;5.60;99.90
23507;DHT22;11930;53.076;18.250;2024-02-04T07:15:45;5.60;99.90
23507;DHT22;11930;53.076;18.250;2024-02-04T07:18:12;5.70;99.90
23507;DHT22;11930;53.076;18.250;2024-02-04T07:20:38;5.70;99.90
23507;DHT22;11930;53.076;18.250;2024-02-04T07:23:04;5.80;99.90
23507;DHT22;11930;53.076;18.250;2024-02-04T07:25:30;5.80;99.90
23507;DHT22;11930;53.076;18.250;2024-02-04T07:27:57;5.70;99.90
23507;DHT22;11930;53.076;18.250;2024-02-04T07:30:24;5.80;99.90
23507;DHT22;11930;53.076;18.250;2024-02-04T07:32:50;5.80;99.90
23507;DHT22;11930;53.076;18.250;2024-02-04T07:35:16;5.80;99.90
23507;DHT22;11930;53.076;18.250;2024-02-04T07:37:43;5.80;99.90
23507;DHT22;11930;53.076;18.250;2024-02-04T07:40:10;5.80;99.90
23507;DHT22;11930;53.076;18.250;2024-02-04T07:42:36;5.80;99.90
23507;DHT22;11930;53.076;18.250;2024-02-04T07:45:02;5.80;99.90
23507;DHT22;11930;53.076;18.250;2024-02-04T07:47:35;5.90;99.90
23507;DHT22;11930;53.076;18.250;2024-02-04T07:50:01;6.00;99.90
23507;DHT22;11930;53.076;18.250;2024-02-04T07:52:28;6.00;99.90
23507;DHT22;11930;53.076;18.250;2024-02-04T07:54:55;6.20;99.90
23507;DHT22;11930;53.076;18.250;2024-02-04T07:57:21;6.30;99.90
23507;DHT22;11930;53.076;18.250;2024-02-04T07:59:47;6.40;99.90
23507;DHT22;11930;53.076;18.250;2024-02-04T08:02:13;6.50;99.90
23507;DHT22;11930;53.076;18.250;2024-02-04T08:04:42;6.60;99.90
23507;DHT22;11930;53.076;18.250;2024-02-04T08:07:08;6.60;99.90
23507;DHT22;11930;53.076;18.250;2024-02-04T08:09:34;6.70;99.90
23507;DHT22;11930;53.076;18.250;2024-02-04T08:12:01;6.70;99.90
23507;DHT22;11930;53.076;18.250;2024-02-04T08:14:27;6.70;99.90
23507;DHT22;11930;53.076;18.250;2024-02-04T08:16:53;6.70;99.90
23507;DHT22;11930;53.076;18.250;2024-02-04T08:19:19;6.70;99.90
23507;DHT22;11930;53.076;18.250;2024-02-04T08:21:46;6.80;99.90
23507;DHT22;11930;53.076;18.250;2024-02-04T08:24:12;6.80;99.90
23507;DHT22;11930;53.076;18.250;2024-02-04T08:26:38;6.80;99.90
23507;DHT22;11930;53.076;18.250;2024-02-04T08:29:04;6.80;99.90
23507;DHT22;11930;53.076;18.250;2024-02-04T08:31:32;6.80;99.90
23507;DHT22;11930;53.076;18.250;2024-02-04T08:33:59;6.70;99.90
23507;DHT22;11930;53.076;18.250;2024-02-04T08:36:26;6.70;99.90
23507;DHT22;11930;53.076;18.250;2024-02-04T08:38:52;6.70;99.90
23507;DHT22;11930;53.076;18.250;2024-02-04T08:41:19;6.70;99.90
23507;DHT22;11930;53.076;18.250;2024-02-04T08:43:45;6.70;99.90
23507;DHT22;11930;53.076;18.250;2024-02-04T08:46:11;6.70;99.90
23507;DHT22;11930;53.076;18.250;2024-02-04T08:48:37;6.70;99.90
23507;DHT22;11930;53.076;18.250;2024-02-04T08:51:04;6.60;99.90
23507;DHT22;11930;53.076;18.250;2024-02-04T08:53:30;6.60;99.90
23507;DHT22;11930;53.076;18.250;2024-02-04T08:55:56;6.60;99.90
23507;DHT22;11930;53.076;18.250;2024-02-04T08:58:22;6.60;99.90
23507;DHT22;11930;53.076;18.250;2024-02-04T09:00:49;6.70;99.90
23507;DHT22;11930;53.076;18.250;2024-02-04T09:03:15;6.70;99.90
23507;DHT22;11930;53.076;18.250;2024-02-04T09:05:41;6.70;99.90
23507;DHT22;11930;53.076;18.250;2024-02-04T09:08:07;6.70;99.90
23507;DHT22;11930;53.076;18.250;2024-02-04T09:10:34;6.70;99.90
23507;DHT22;11930;53.076;18.250;2024-02-04T09:13:00;6.70;99.90
23507;DHT22;11930;53.076;18.250;2024-02-04T09:15:26;6.70;99.90
23507;DHT22;11930;53.076;18.250;2024-02-04T09:17:52;6.70;99.90
23507;DHT22;11930;53.076;18.250;2024-02-04T09:20:18;6.80;99.90
23507;DHT22;11930;53.076;18.250;2024-02-04T09:22:45;6.80;99.90
23507;DHT22;11930;53.076;18.250;2024-02-04T09:25:11;6.80;99.90
23507;DHT22;11930;53.076;18.250;2024-02-04T09:27:37;6.80;99.90
23507;DHT22;11930;53.076;18.250;2024-02-04T09:30:04;6.90;99.90
23507;DHT22;11930;53.076;18.250;2024-02-04T09:32:31;6.90;99.90
23507;DHT22;11930;53.076;18.250;2024-02-04T09:34:58;6.90;99.90
23507;DHT22;11930;53.076;18.250;2024-02-04T09:37:24;7.00;99.90
23507;DHT22;11930;53.076;18.250;2024-02-04T09:39:51;7.00;99.90
23507;DHT22;11930;53.076;18.250;2024-02-04T09:42:20;7.10;99.90
23507;DHT22;11930;53.076;18.250;2024-02-04T09:44:50;7.10;99.90
23507;DHT22;11930;53.076;18.250;2024-02-04T09:47:17;7.20;99.90
23507;DHT22;11930;53.076;18.250;2024-02-04T09:49:43;7.20;99.90
23507;DHT22;11930;53.076;18.250;2024-02-04T09:52:10;7.30;99.90
23507;DHT22;11930;53.076;18.250;2024-02-04T09:54:49;7.40;99.90
23507;DHT22;11930;53.076;18.250;2024-02-04T09:57:16;7.40;99.90
23507;DHT22;11930;53.076;18.250;2024-02-04T09:59:44;7.50;99.90
23507;DHT22;11930;53.076;18.250;2024-02-04T10:02:10;7.50;99.90
23507;DHT22;11930;53.076;18.250;2024-02-04T10:04:36;7.50;99.90
23507;DHT22;11930;53.076;18.250;2024-02-04T10:07:03;7.50;99.90
23507;DHT22;11930;53.076;18.250;2024-02-04T10:09:29;7.50;99.90
23507;DHT22;11930;53.076;18.250;2024-02-04T10:11:57;7.50;99.90
23507;DHT22;11930;53.076;18.250;2024-02-04T10:14:23;7.50;99.90
23507;DHT22;11930;53.076;18.250;2024-02-04T10:16:50;7.50;99.90
23507;DHT22;11930;53.076;18.250;2024-02-04T10:19:16;7.40;99.90
23507;DHT22;11930;53.076;18.250;2024-02-04T10:21:42;7.40;99.90
23507;DHT22;11930;53.076;18.250;2024-02-04T10:24:09;7.40;99.90
23507;DHT22;11930;53.076;18.250;2024-02-04T10:26:35;7.40;99.90
23507;DHT22;11930;53.076;18.250;2024-02-04T10:29:03;7.40;99.90
23507;DHT22;11930;53.076;18.250;2024-02-04T10:31:30;7.40;99.90
23507;DHT22;11930;53.076;18.250;2024-02-04T10:33:56;7.40;99.90
23507;DHT22;11930;53.076;18.250;2024-02-04T10:36:22;7.40;99.90
23507;DHT22;11930;53.076;18.250;2024-02-04T10:38:49;7.40;99.90
23507;DHT22;11930;53.076;18.250;2024-02-04T10:41:16;7.50;99.90
23507;DHT22;11930;53.076;18.250;2024-02-04T10:43:44;7.50;99.90
23507;DHT22;11930;53.076;18.250;2024-02-04T10:46:17;7.40;99.90
23507;DHT22;11930;53.076;18.250;2024-02-04T10:48:48;7.40;99.90
23507;DHT22;11930;53.076;18.250;2024-02-04T10:51:17;7.50;99.90
23507;DHT22;11930;53.076;18.250;2024-02-04T10:53:47;7.60;99.90
23507;DHT22;11930;53.076;18.250;2024-02-04T10:56:37;7.70;99.90
23507;DHT22;11930;53.076;18.250;2024-02-04T10:59:04;7.90;99.90
23507;DHT22;11930;53.076;18.250;2024-02-04T11:01:32;8.30;99.90
23507;DHT22;11930;53.076;18.250;2024-02-04T11:04:00;8.20;99.90
23507;DHT22;11930;53.076;18.250;2024-02-04T11:06:27;8.40;99.90
23507;DHT22;11930;53.076;18.250;2024-02-04T11:08:55;8.50;99.90
23507;DHT22;11930;53.076;18.250;2024-02-04T11:11:22;8.50;99.90
23507;DHT22;11930;53.076;18.250;2024-02-04T11:13:53;8.60;99.90
23507;DHT22;11930;53.076;18.250;2024-02-04T11:19:47;8.60;99.90
23507;DHT22;11930;53.076;18.250;2024-02-04T11:22:48;8.60;99.90
23507;DHT22;11930;53.076;18.250;2024-02-04T11:25:43;8.70;99.90
23507;DHT22;11930;53.076;18.250;2024-02-04T11:28:11;8.70;99.90
23507;DHT22;11930;53.076;18.250;2024-02-04T11:30:38;8.80;99.90
23507;DHT22;11930;53.076;18.250;2024-02-04T11:33:06;8.80;99.90
23507;DHT22;11930;53.076;18.250;2024-02-04T11:35:33;9.00;99.90
23507;DHT22;11930;53.076;18.250;2024-02-04T11:37:59;9.00;99.90
23507;DHT22;11930;53.076;18.250;2024-02-04T11:40:37;9.10;99.90
23507;DHT22;11930;53.076;18.250;2024-02-04T11:43:13;9.20;99.90
23507;DHT22;11930;53.076;18.250;2024-02-04T11:45:41;9.30;99.90
23507;DHT22;11930;53.076;18.250;2024-02-04T11:48:10;9.40;99.90
23507;DHT22;11930;53.076;18.250;2024-02-04T11:50:38;9.40;99.90
23507;DHT22;11930;53.076;18.250;2024-02-04T11:55:33;9.40;99.90
23507;DHT22;11930;53.076;18.250;2024-02-04T11:58:00;9.30;99.90
23507;DHT22;11930;53.076;18.250;2024-02-04T12:00:26;9.30;99.90
23507;DHT22;11930;53.076;18.250;2024-02-04T12:03:05;9.20;99.90
23507;DHT22;11930;53.076;18.250;2024-02-04T12:05:33;9.20;99.90
23507;DHT22;11930;53.076;18.250;2024-02-04T12:08:04;9.10;99.90
23507;DHT22;11930;53.076;18.250;2024-02-04T12:10:32;9.10;99.90
23507;DHT22;11930;53.076;18.250;2024-02-04T12:12:59;9.00;99.90
23507;DHT22;11930;53.076;18.250;2024-02-04T12:15:26;9.00;99.90
23507;DHT22;11930;53.076;18.250;2024-02-04T12:17:52;8.90;99.90
23507;DHT22;11930;53.076;18.250;2024-02-04T12:20:19;8.80;99.90
23507;DHT22;11930;53.076;18.250;2024-02-04T12:22:45;8.70;99.90
23507;DHT22;11930;53.076;18.250;2024-02-04T12:25:12;8.60;99.90
23507;DHT22;11930;53.076;18.250;2024-02-04T12:27:38;8.60;99.90
23507;DHT22;11930;53.076;18.250;2024-02-04T12:30:05;8.50;99.90
23507;DHT22;11930;53.076;18.250;2024-02-04T12:32:31;8.50;99.90
23507;DHT22;11930;53.076;18.250;2024-02-04T12:34:58;8.40;99.90
23507;DHT22;11930;53.076;18.250;2024-02-04T12:37:24;8.30;99.90
23507;DHT22;11930;53.076;18.250;2024-02-04T12:39:52;8.30;99.90
23507;DHT22;11930;53.076;18.250;2024-02-04T12:42:19;8.30;99.90
23507;DHT22;11930;53.076;18.250;2024-02-04T12:44:49;8.30;99.90
23507;DHT22;11930;53.076;18.250;2024-02-04T12:47:19;8.30;99.90
23507;DHT22;11930;53.076;18.250;2024-02-04T12:49:46;8.30;99.90
23507;DHT22;11930;53.076;18.250;2024-02-04T12:52:12;8.30;99.90
23507;DHT22;11930;53.076;18.250;2024-02-04T12:54:43;8.30;99.90
23507;DHT22;11930;53.076;18.250;2024-02-04T12:57:10;8.20;99.90
23507;DHT22;11930;53.076;18.250;2024-02-04T12:59:38;8.20;99.90
23507;DHT22;11930;53.076;18.250;2024-02-04T13:02:08;8.20;99.90
23507;DHT22;11930;53.076;18.250;2024-02-04T13:04:40;8.20;99.90
23507;DHT22;11930;53.076;18.250;2024-02-04T13:07:12;8.10;99.90
23507;DHT22;11930;53.076;18.250;2024-02-04T13:09:44;8.20;99.90
23507;DHT22;11930;53.076;18.250;2024-02-04T13:12:11;8.20;99.90
23507;DHT22;11930;53.076;18.250;2024-02-04T13:14:41;8.10;99.90
23507;DHT22;11930;53.076;18.250;2024-02-04T13:17:08;8.10;99.90
23507;DHT22;11930;53.076;18.250;2024-02-04T13:19:37;8.10;99.90
23507;DHT22;11930;53.076;18.250;2024-02-04T13:22:04;8.10;99.90
23507;DHT22;11930;53.076;18.250;2024-02-04T13:24:33;8.00;99.90
23507;DHT22;11930;53.076;18.250;2024-02-04T13:27:00;8.00;99.90
23507;DHT22;11930;53.076;18.250;2024-02-04T13:29:30;8.00;99.90
23507;DHT22;11930;53.076;18.250;2024-02-04T13:31:57;8.00;99.90
23507;DHT22;11930;53.076;18.250;2024-02-04T13:34:23;8.00;99.90
23507;DHT22;11930;53.076;18.250;2024-02-04T13:36:49;8.00;99.90
23507;DHT22;11930;53.076;18.250;2024-02-04T13:39:17;7.90;99.90
23507;DHT22;11930;53.076;18.250;2024-02-04T13:41:44;7.90;99.90
23507;DHT22;11930;53.076;18.250;2024-02-04T13:44:10;7.90;99.90
23507;DHT22;11930;53.076;18.250;2024-02-04T13:46:36;7.90;99.90
23507;DHT22;11930;53.076;18.250;2024-02-04T13:49:05;7.80;99.90
23507;DHT22;11930;53.076;18.250;2024-02-04T13:51:32;7.80;99.90
23507;DHT22;11930;53.076;18.250;2024-02-04T13:53:59;7.80;99.90
23507;DHT22;11930;53.076;18.250;2024-02-04T13:56:25;7.70;99.90
23507;DHT22;11930;53.076;18.250;2024-02-04T13:58:51;7.70;99.90
23507;DHT22;11930;53.076;18.250;2024-02-04T14:01:17;7.80;99.90
23507;DHT22;11930;53.076;18.250;2024-02-04T14:03:45;7.70;99.90
23507;DHT22;11930;53.076;18.250;2024-02-04T14:06:11;7.70;99.90
23507;DHT22;11930;53.076;18.250;2024-02-04T14:08:38;7.70;99.90
23507;DHT22;11930;53.076;18.250;2024-02-04T14:11:05;7.70;99.90
23507;DHT22;11930;53.076;18.250;2024-02-04T14:13:31;7.70;99.90
23507;DHT22;11930;53.076;18.250;2024-02-04T14:15:58;7.70;99.90
23507;DHT22;11930;53.076;18.250;2024-02-04T14:18:25;7.70;99.90
23507;DHT22;11930;53.076;18.250;2024-02-04T14:20:51;7.70;99.90
23507;DHT22;11930;53.076;18.250;2024-02-04T14:23:17;7.70;99.90
23507;DHT22;11930;53.076;18.250;2024-02-04T14:25:43;7.70;99.90
23507;DHT22;11930;53.076;18.250;2024-02-04T14:28:12;7.70;99.90
23507;DHT22;11930;53.076;18.250;2024-02-04T14:30:38;7.70;99.90
23507;DHT22;11930;53.076;18.250;2024-02-04T14:33:05;7.70;99.90
23507;DHT22;11930;53.076;18.250;2024-02-04T14:35:30;7.60;99.90
23507;DHT22;11930;53.076;18.250;2024-02-04T14:37:58;7.60;99.90
23507;DHT22;11930;53.076;18.250;2024-02-04T14:40:24;7.60;99.90
23507;DHT22;11930;53.076;18.250;2024-02-04T14:42:50;7.60;99.90
23507;DHT22;11930;53.076;18.250;2024-02-04T14:45:17;7.50;99.90
23507;DHT22;11930;53.076;18.250;2024-02-04T14:47:45;7.50;99.90
23507;DHT22;11930;53.076;18.250;2024-02-04T14:50:11;7.50;99.90
23507;DHT22;11930;53.076;18.250;2024-02-04T14:52:39;7.50;99.90
23507;DHT22;11930;53.076;18.250;2024-02-04T14:55:05;7.50;99.90
23507;DHT22;11930;53.076;18.250;2024-02-04T14:57:31;7.50;99.90
23507;DHT22;11930;53.076;18.250;2024-02-04T14:59:57;7.50;99.90
23507;DHT22;11930;53.076;18.250;2024-02-04T15:02:24;7.40;99.90
23507;DHT22;11930;53.076;18.250;2024-02-04T15:04:50;7.40;99.90
23507;DHT22;11930;53.076;18.250;2024-02-04T15:07:16;7.30;99.90
23507;DHT22;11930;53.076;18.250;2024-02-04T15:09:43;7.30;99.90
23507;DHT22;11930;53.076;18.250;2024-02-04T15:12:10;7.30;99.90
23507;DHT22;11930;53.076;18.250;2024-02-04T15:14:36;7.30;99.90
23507;DHT22;11930;53.076;18.250;2024-02-04T15:17:04;7.30;99.90
23507;DHT22;11930;53.076;18.250;2024-02-04T15:19:30;7.20;99.90
23507;DHT22;11930;53.076;18.250;2024-02-04T15:22:03;7.20;99.90
23507;DHT22;11930;53.076;18.250;2024-02-04T15:24:30;7.20;99.90
23507;DHT22;11930;53.076;18.250;2024-02-04T15:26:57;7.20;99.90
23507;DHT22;11930;53.076;18.250;2024-02-04T15:29:34;7.20;99.90
23507;DHT22;11930;53.076;18.250;2024-02-04T15:32:02;7.20;99.90
23507;DHT22;11930;53.076;18.250;2024-02-04T15:34:29;7.20;99.90
23507;DHT22;11930;53.076;18.250;2024-02-04T15:36:59;7.20;99.90
23507;DHT22;11930;53.076;18.250;2024-02-04T15:39:25;7.20;99.90
23507;DHT22;11930;53.076;18.250;2024-02-04T15:41:51;7.10;99.90